Portada
METAR-TAF:

METAR-TAF

Aeroports :

Aeroport Internacional de Singapur-Changi

Singapur, Singapur

latitud: 01-22N, longitud: 103-59E, altitud: 5 m

Observació

L'informe es va fer fa 25 minuts, a les 18:00 UTC
Vent 7 kt del Nord-Est
Temperatura 26°C
Humitat 89%
Pressió 1011 hPa
Visibilitat: 9000 m
Escasses núvols a una alçada de 1800 ft
Cel ennuvolat a una alçada de 30000 ft

METAR: WSSS 281800Z 04007KT 9000 FEW018 BKN300 26/24 Q1011 NOSIG

Hora: 02:25 (18:25 UTC)

Pronòstic

L'informe es va fer fa 1 hora i 25 minuts, a les 17:00 UTC
Pronòstic vàlid del 28 a les 18 UTC al 02 a les 00 UTC
Vent 8 kt del Nord/Nord-Est
Visibilitat 10 km o més
Escasses núvols a una alçada de 1500 ft
Evolucionant progressivament
l' 01 a les 06 UTC al 01 a les 07 UTC
Vent 10 kt del Est/Sud-Est
Evolucionant progressivament
l' 01 a les 09 UTC al 01 a les 11 UTC
Vent 5 kt del Nord/Nord-Est

TAF: WSSS 281700Z 2818/0200 02008KT 9999 FEW015 BECMG 0106/0107 11010KT BECMG 0109/0111 02005KT

Observacions i pronòstics meteorològics de més de 4000 aeroports (METAR i TAF).

Les estacions disponibles són els punts grocs i vermells al mapa.

Posi el ratolí al punt desitjat per veure el nom de l'estació.

Feu clic per veure les observacions i els pronòstics meteorològics.

Per canviar el mapa: feu clic els botons verds amb una creu de color negre per apropar; al botó verd amb un guió per allunyar la imatge; o en les fletxes verdes per a mapes adjacents.


METAR-TAF: